Time;durP1;ratioP1;P1;durP2;ratioP2;P2;SDS_P1;SDS_P2;PMS_P1;PMS_P2;Temp;Humidity;BMP_temperature;BMP_pressure;BME280_temperature;BME280_humidity;BME280_pressure;Samples;Min_cycle;Max_cycle;Signal;HPM_P1;HPM_P2
2023/09/18 00:01:19;;;;;;;0.98;0.82;;;;;;;21.44;61.61;100155.75;5366668;26;33679;-80
2023/09/18 00:03:47;;;;;;;4.90;1.30;;;;;;;21.30;62.11;100153.34;5348882;26;32700;-79
2023/09/18 00:06:15;;;;;;;0.93;0.93;;;;;;;21.21;62.33;100150.41;5348567;26;32284;-79
2023/09/18 00:08:43;;;;;;;1.02;0.70;;;;;;;21.15;62.71;100145.56;5367583;26;34734;-78
2023/09/18 00:11:11;;;;;;;6.62;1.45;;;;;;;21.11;62.74;100141.41;5367649;26;34716;-79
2023/09/18 00:13:39;;;;;;;1.55;1.37;;;;;;;21.02;63.13;100146.69;5348711;26;34062;-78
2023/09/18 00:16:07;;;;;;;1.67;1.55;;;;;;;20.97;63.23;100137.19;5348664;26;33494;-79
2023/09/18 00:18:35;;;;;;;7.90;2.53;;;;;;;21.03;63.12;100130.47;5366309;26;33821;-79
2023/09/18 00:21:02;;;;;;;1.17;0.70;;;;;;;21.11;62.62;100136.03;5348697;26;33302;-80
2023/09/18 00:23:31;;;;;;;5.20;2.70;;;;;;;20.99;63.12;100130.84;5348935;26;34003;-79
2023/09/18 00:25:59;;;;;;;1.23;1.12;;;;;;;21.25;62.00;100128.69;5368340;26;34202;-79
2023/09/18 00:28:27;;;;;;;1.25;0.82;;;;;;;21.11;62.18;100132.50;5367218;26;33965;-80
2023/09/18 00:30:54;;;;;;;3.03;1.35;;;;;;;20.89;63.14;100144.16;5349051;26;32962;-79
2023/09/18 00:33:22;;;;;;;0.90;0.85;;;;;;;20.92;63.26;100133.16;5348646;26;32940;-80
2023/09/18 00:35:50;;;;;;;2.72;1.33;;;;;;;20.85;63.40;100137.34;5367578;26;33790;-79
2023/09/18 00:38:19;;;;;;;0.75;0.75;;;;;;;20.87;63.35;100138.91;5349022;26;33722;-79
2023/09/18 00:40:47;;;;;;;1.77;1.17;;;;;;;20.88;63.38;100127.19;5368065;26;33918;-79
2023/09/18 00:43:17;;;;;;;1.12;1.00;;;;;;;20.85;63.26;100127.47;5347962;26;33760;-79
2023/09/18 00:45:48;;;;;;;0.50;0.50;;;;;;;20.92;62.90;100125.13;5367495;26;33369;-79
2023/09/18 00:48:16;;;;;;;2.80;0.98;;;;;;;20.74;64.00;100132.81;5349404;26;33731;-79
2023/09/18 00:50:44;;;;;;;2.20;1.27;;;;;;;20.80;64.15;100128.81;5348802;26;34753;-79
2023/09/18 00:53:21;;;;;;;3.22;1.65;;;;;;;21.02;63.16;100128.75;5348906;26;34529;-79
2023/09/18 00:55:51;;;;;;;3.80;0.85;;;;;;;20.93;63.55;100133.03;5310636;26;34119;-79
2023/09/18 00:58:18;;;;;;;1.45;0.95;;;;;;;20.94;63.69;100131.22;5349156;26;34612;-78
2023/09/18 01:00:46;;;;;;;1.83;0.88;;;;;;;20.90;63.80;100135.13;5330037;26;33902;-79
2023/09/18 01:03:17;;;;;;;1.55;1.30;;;;;;;20.84;64.06;100130.25;5367317;26;33889;-79
2023/09/18 01:05:45;;;;;;;5.25;2.10;;;;;;;20.98;63.54;100127.28;5365846;26;33366;-78
2023/09/18 01:08:13;;;;;;;1.45;1.35;;;;;;;20.90;63.98;100129.75;5348786;26;33887;-78
2023/09/18 01:10:53;;;;;;;2.25;1.67;;;;;;;20.89;63.92;100125.37;5348912;26;32848;-78
2023/09/18 01:13:24;;;;;;;1.25;1.02;;;;;;;20.79;64.66;100117.19;5367682;26;33540;-78
2023/09/18 01:16:00;;;;;;;2.03;1.83;;;;;;;20.96;64.08;100124.75;5349287;26;33344;-79
2023/09/18 01:18:28;;;;;;;1.92;1.37;;;;;;;20.93;63.79;100124.97;5346078;26;33090;-78
2023/09/18 01:20:55;;;;;;;2.62;1.67;;;;;;;21.09;62.92;100113.00;5385284;26;33616;-78
2023/09/18 01:23:23;;;;;;;0.70;0.68;;;;;;;20.97;63.35;100114.84;5365331;26;34071;-78
2023/09/18 01:25:51;;;;;;;1.42;1.23;;;;;;;20.79;64.14;100116.34;5349256;26;33589;-78
2023/09/18 01:28:19;;;;;;;2.83;1.33;;;;;;;20.86;64.26;100115.75;5366833;26;34717;-78
2023/09/18 01:30:46;;;;;;;1.15;1.15;;;;;;;20.81;64.27;100111.72;5348984;26;33550;-78
2023/09/18 01:33:15;;;;;;;2.12;1.50;;;;;;;21.05;63.54;100115.09;5366902;26;33331;-78
2023/09/18 01:35:43;;;;;;;3.03;1.73;;;;;;;21.00;63.69;100121.81;5348927;26;34140;-78
2023/09/18 01:38:11;;;;;;;0.73;0.73;;;;;;;20.98;63.70;100116.53;5329920;26;32804;-79
2023/09/18 01:40:40;;;;;;;1.50;1.40;;;;;;;21.08;63.59;100120.22;5367613;26;33367;-79
2023/09/18 01:43:08;;;;;;;0.90;0.73;;;;;;;21.05;63.24;100117.78;5325431;26;33060;-79
2023/09/18 01:45:37;;;;;;;0.98;0.98;;;;;;;20.91;63.68;100115.37;5344419;26;34063;-80
2023/09/18 01:48:06;;;;;;;1.10;0.85;;;;;;;20.94;63.56;100125.84;5326494;26;33927;-79
2023/09/18 01:50:33;;;;;;;1.98;1.27;;;;;;;21.04;63.39;100120.59;5326620;26;33238;-79
2023/09/18 01:53:02;;;;;;;1.62;1.33;;;;;;;20.97;63.41;100112.16;5344599;26;33843;-79
2023/09/18 01:55:30;;;;;;;1.05;1.05;;;;;;;20.94;63.16;100120.50;5363553;26;33431;-79
2023/09/18 01:57:58;;;;;;;1.52;1.42;;;;;;;21.00;63.26;100117.28;5325339;26;33437;-79
2023/09/18 02:00:26;;;;;;;2.10;1.35;;;;;;;21.00;63.06;100114.59;5345186;26;34611;-79
2023/09/18 02:02:54;;;;;;;0.52;0.52;;;;;;;20.89;63.72;100114.66;5326691;26;35209;-79
2023/09/18 02:05:44;;;;;;;17.45;2.28;;;;;;;20.84;63.61;100114.13;5329290;26;32350;-80
2023/09/18 02:08:12;;;;;;;0.95;0.95;;;;;;;20.93;63.16;100116.06;5343802;26;33679;-80
2023/09/18 02:10:39;;;;;;;0.85;0.85;;;;;;;21.04;62.48;100113.38;5326281;26;33637;-80
2023/09/18 02:13:08;;;;;;;0.80;0.80;;;;;;;20.89;63.22;100112.81;5344589;26;34168;-80
2023/09/18 02:15:37;;;;;;;2.03;1.45;;;;;;;20.85;63.35;100114.03;5344833;26;33124;-80
2023/09/18 02:18:06;;;;;;;0.80;0.75;;;;;;;20.79;63.40;100108.28;5326720;26;34025;-81
2023/09/18 02:20:41;;;;;;;0.70;0.70;;;;;;;20.89;63.18;100106.59;5345075;26;33637;-79
2023/09/18 02:23:09;;;;;;;0.85;0.82;;;;;;;20.87;63.29;100114.75;5326337;26;34621;-79
2023/09/18 02:25:36;;;;;;;0.80;0.80;;;;;;;20.88;62.75;100112.91;5326059;26;32083;-78
2023/09/18 02:28:04;;;;;;;0.60;0.55;;;;;;;20.74;63.49;100113.19;5344770;26;34461;-79
2023/09/18 02:30:33;;;;;;;0.57;0.57;;;;;;;20.82;63.40;100124.16;5344690;26;33694;-78
2023/09/18 02:33:03;;;;;;;3.08;1.55;;;;;;;20.91;62.85;100120.72;5306439;26;33676;-78
2023/09/18 02:35:30;;;;;;;1.87;0.98;;;;;;;20.85;63.07;100121.25;5343849;26;33548;-78
2023/09/18 02:38:00;;;;;;;1.55;1.02;;;;;;;20.82;63.22;100126.84;5344717;26;34794;-79
2023/09/18 02:40:28;;;;;;;1.45;0.82;;;;;;;20.82;63.09;100124.16;5344746;26;33882;-79
2023/09/18 02:42:56;;;;;;;2.03;1.45;;;;;;;20.74;63.25;100122.09;5359489;26;92843;-79
2023/09/18 02:45:24;;;;;;;1.15;0.80;;;;;;;20.73;63.40;100123.06;5344488;26;32910;-79
2023/09/18 02:47:52;;;;;;;1.33;0.88;;;;;;;20.83;63.04;100123.19;5326296;26;33614;-79
2023/09/18 02:50:20;;;;;;;0.70;0.70;;;;;;;20.85;62.98;100127.47;5363130;26;33920;-79
2023/09/18 02:52:48;;;;;;;0.55;0.55;;;;;;;20.89;62.83;100134.28;5343387;26;32810;-78
2023/09/18 02:55:15;;;;;;;0.98;0.93;;;;;;;20.79;63.13;100132.44;5344632;26;32668;-79
2023/09/18 02:57:43;;;;;;;0.82;0.80;;;;;;;20.74;63.42;100131.97;5363781;26;34662;-79
2023/09/18 03:00:11;;;;;;;0.88;0.88;;;;;;;20.78;63.26;100133.44;5327301;26;32795;-78
2023/09/18 03:02:39;;;;;;;21.05;1.48;;;;;;;20.79;63.22;100127.94;5362651;26;34101;-79
2023/09/18 03:05:08;;;;;;;5.43;2.25;;;;;;;20.87;62.98;100128.16;5345265;26;34298;-79
2023/09/18 03:07:37;;;;;;;2.75;2.33;;;;;;;20.71;64.00;100130.41;5345675;26;32755;-79
2023/09/18 03:10:05;;;;;;;1.95;1.48;;;;;;;20.77;63.73;100126.38;5345366;26;33990;-79
2023/09/18 03:12:33;;;;;;;1.05;1.02;;;;;;;20.73;64.02;100124.91;5326701;26;32711;-79
2023/09/18 03:15:02;;;;;;;2.65;1.85;;;;;;;20.81;63.67;100120.62;5365755;26;33404;-80
2023/09/18 03:17:30;;;;;;;2.20;1.58;;;;;;;20.76;63.72;100120.16;5345991;26;32897;-79
2023/09/18 03:19:58;;;;;;;1.25;1.15;;;;;;;20.69;64.17;100109.03;5326829;26;33003;-80
2023/09/18 03:22:26;;;;;;;1.00;0.95;;;;;;;20.69;64.38;100114.41;5345463;26;34109;-78
2023/09/18 03:24:54;;;;;;;0.47;0.47;;;;;;;20.76;64.19;100101.37;5345741;26;33484;-80
2023/09/18 03:27:27;;;;;;;0.90;0.70;;;;;;;20.96;63.50;100110.47;5345080;26;34115;-79
2023/09/18 03:29:55;;;;;;;1.80;1.62;;;;;;;20.79;63.89;100108.28;5328268;26;33926;-79
2023/09/18 03:32:22;;;;;;;4.25;1.30;;;;;;;20.95;63.40;100108.78;5344997;26;34082;-79
2023/09/18 03:34:51;;;;;;;3.03;1.67;;;;;;;20.88;63.73;100100.34;5326828;26;33880;-78
2023/09/18 03:37:19;;;;;;;2.37;1.87;;;;;;;20.82;63.88;100102.69;5345008;26;33987;-79
2023/09/18 03:39:47;;;;;;;3.15;1.50;;;;;;;20.92;63.36;100106.31;5327384;26;33101;-79
2023/09/18 03:42:15;;;;;;;1.30;1.20;;;;;;;20.78;63.65;100109.28;5363754;26;32915;-79
2023/09/18 03:44:43;;;;;;;1.33;0.90;;;;;;;20.79;63.49;100105.63;5344887;26;33504;-79
2023/09/18 03:47:11;;;;;;;1.62;1.48;;;;;;;20.82;63.50;100100.00;5326014;26;32959;-79
2023/09/18 03:49:39;;;;;;;1.23;0.88;;;;;;;20.77;63.50;100110.25;5363839;26;33216;-79
2023/09/18 03:52:07;;;;;;;1.17;1.08;;;;;;;20.74;63.90;100107.81;5326605;26;33740;-79
2023/09/18 03:54:35;;;;;;;2.28;2.08;;;;;;;20.74;63.80;100108.66;5363690;26;33250;-79
2023/09/18 03:57:03;;;;;;;1.33;1.23;;;;;;;20.81;63.47;100104.53;5363347;26;34412;-79
2023/09/18 03:59:31;;;;;;;1.33;1.00;;;;;;;20.87;63.01;100109.38;5344785;26;34740;-79
2023/09/18 04:01:58;;;;;;;1.60;1.17;;;;;;;20.73;63.59;100101.59;5345665;26;33887;-78
2023/09/18 04:04:28;;;;;;;1.37;1.27;;;;;;;20.76;63.50;100105.88;5326321;26;32561;-80
2023/09/18 04:06:55;;;;;;;1.67;1.58;;;;;;;20.79;63.16;100095.72;5345553;26;33213;-79
2023/09/18 04:09:23;;;;;;;0.65;0.65;;;;;;;20.89;62.83;100095.84;5363498;26;33882;-79
2023/09/18 04:11:52;;;;;;;1.65;1.27;;;;;;;20.77;63.36;100091.47;5327147;26;33776;-79
2023/09/18 04:14:20;;;;;;;2.10;2.00;;;;;;;20.76;63.38;100089.78;5344533;26;34170;-78
2023/09/18 04:16:47;;;;;;;1.10;0.98;;;;;;;20.61;63.76;100097.25;5363227;26;33629;-79
2023/09/18 04:19:16;;;;;;;4.32;0.88;;;;;;;20.58;63.77;100095.66;5345655;26;34246;-78
2023/09/18 04:21:44;;;;;;;2.03;1.27;;;;;;;20.74;63.35;100091.72;5345118;26;33373;-79
2023/09/18 04:24:12;;;;;;;1.50;1.05;;;;;;;20.73;63.32;100087.34;5345252;26;32321;-78
2023/09/18 04:26:40;;;;;;;3.75;1.55;;;;;;;20.67;63.43;100089.53;5363746;26;33285;-79
2023/09/18 04:29:08;;;;;;;1.92;1.70;;;;;;;20.60;63.47;100088.31;5344972;26;34026;-79
2023/09/18 04:31:37;;;;;;;1.70;1.58;;;;;;;20.64;63.27;100080.87;5326419;26;32783;-79
2023/09/18 04:34:05;;;;;;;1.00;0.88;;;;;;;20.62;63.44;100075.66;5308717;26;33573;-79
2023/09/18 04:36:33;;;;;;;2.62;1.80;;;;;;;20.65;63.43;100077.22;5363883;26;33690;-79
2023/09/18 04:39:04;;;;;;;5.80;2.25;;;;;;;20.66;63.00;100071.75;5326966;26;33001;-81
2023/09/18 04:41:33;;;;;;;2.10;1.67;;;;;;;20.66;63.24;100087.84;5362257;26;34405;-81
2023/09/18 04:44:02;;;;;;;1.35;1.17;;;;;;;20.43;64.02;100078.94;5330789;26;33608;-78
2023/09/18 04:46:30;;;;;;;2.47;1.73;;;;;;;20.32;64.33;100091.47;5348920;26;32785;-79
2023/09/18 04:48:58;;;;;;;1.77;1.67;;;;;;;20.68;63.14;100085.03;5329690;26;32865;-78
2023/09/18 04:51:25;;;;;;;1.55;1.33;;;;;;;20.65;63.46;100080.78;5346325;26;32245;-80
2023/09/18 04:53:54;;;;;;;3.55;2.05;;;;;;;20.53;63.77;100088.97;5345098;26;33407;-78
2023/09/18 04:56:22;;;;;;;0.85;0.85;;;;;;;20.79;63.13;100079.62;5346310;26;34055;-78
2023/09/18 04:58:50;;;;;;;2.97;1.33;;;;;;;20.55;63.72;100077.09;5327474;26;34400;-78
2023/09/18 05:01:19;;;;;;;0.73;0.73;;;;;;;20.48;64.05;100083.97;5365101;26;33924;-79
2023/09/18 05:03:48;;;;;;;1.45;0.35;;;;;;;20.25;64.75;100080.41;5328549;26;33720;-79
2023/09/18 05:06:16;;;;;;;1.40;1.27;;;;;;;20.21;64.87;100084.28;5345595;26;32798;-78
2023/09/18 05:08:44;;;;;;;2.12;1.50;;;;;;;20.30;64.86;100086.25;5364960;26;33527;-78
2023/09/18 05:11:12;;;;;;;1.70;1.35;;;;;;;20.23;65.19;100082.34;5364956;26;34247;-79
2023/09/18 05:13:41;;;;;;;2.83;2.08;;;;;;;20.33;64.71;100080.66;5346781;26;33490;-78
2023/09/18 05:16:08;;;;;;;4.90;2.15;;;;;;;20.50;64.09;100081.16;5364542;26;33860;-78
2023/09/18 05:18:37;;;;;;;4.35;2.37;;;;;;;20.60;63.86;100080.28;5346019;26;33058;-78
2023/09/18 05:21:05;;;;;;;2.33;1.05;;;;;;;20.54;63.86;100082.59;5345875;26;33496;-77
2023/09/18 05:23:33;;;;;;;1.65;1.33;;;;;;;20.41;64.43;100085.38;5346219;26;34191;-78
2023/09/18 05:26:03;;;;;;;3.28;2.37;;;;;;;20.25;64.95;100084.91;5346698;26;34966;-78
2023/09/18 05:28:31;;;;;;;1.27;1.17;;;;;;;20.40;64.52;100094.41;5363980;26;33471;-77
2023/09/18 05:30:59;;;;;;;2.20;1.60;;;;;;;20.18;65.07;100092.59;5327106;26;33265;-78
2023/09/18 05:33:28;;;;;;;2.92;2.65;;;;;;;20.41;64.58;100090.75;5364668;26;33699;-77
2023/09/18 05:35:56;;;;;;;4.40;1.75;;;;;;;20.67;63.80;100088.69;5345444;26;32994;-78
2023/09/18 05:38:23;;;;;;;2.08;1.42;;;;;;;20.61;64.00;100086.50;5367580;26;33601;-78
2023/09/18 05:40:51;;;;;;;2.92;1.90;;;;;;;21.08;62.48;100079.94;5367548;26;33532;-78
2023/09/18 05:43:19;;;;;;;3.08;2.30;;;;;;;20.79;63.46;100074.25;5326011;26;32594;-78
2023/09/18 05:45:49;;;;;;;2.15;2.05;;;;;;;20.88;63.61;100078.88;5325816;26;32874;-78
2023/09/18 05:48:19;;;;;;;0.98;0.93;;;;;;;20.92;62.99;100076.78;5288634;26;34870;-78
2023/09/18 05:50:47;;;;;;;2.35;1.30;;;;;;;20.74;63.98;100081.84;5365059;26;34653;-78
2023/09/18 05:53:15;;;;;;;1.70;1.52;;;;;;;20.38;65.15;100077.59;5325094;26;32287;-78
2023/09/18 05:55:44;;;;;;;3.42;0.82;;;;;;;21.04;63.05;100075.78;5326083;26;33630;-78
2023/09/18 05:58:11;;;;;;;0.95;0.90;;;;;;;21.10;62.43;100075.28;5325959;26;33666;-78
2023/09/18 06:00:39;;;;;;;3.62;1.90;;;;;;;21.13;62.75;100066.12;5307355;26;32886;-80
2023/09/18 06:03:07;;;;;;;1.67;1.58;;;;;;;21.09;62.73;100062.84;5326208;26;33299;-82
2023/09/18 06:05:35;;;;;;;2.83;2.58;;;;;;;21.28;62.42;100070.22;5325990;26;33650;-79
2023/09/18 06:08:03;;;;;;;1.30;1.23;;;;;;;21.42;61.88;100071.78;5307390;26;33996;-79
2023/09/18 06:10:31;;;;;;;3.50;1.98;;;;;;;21.06;62.95;100065.78;5306592;26;33315;-79
2023/09/18 06:13:03;;;;;;;1.55;1.45;;;;;;;21.15;62.89;100069.53;5342905;26;32379;-78
2023/09/18 06:15:32;;;;;;;3.70;1.87;;;;;;;21.19;62.20;100066.47;5324584;26;33102;-78
2023/09/18 06:18:00;;;;;;;1.23;1.12;;;;;;;21.05;62.50;100071.28;5304392;26;33298;-79
2023/09/18 06:20:28;;;;;;;1.00;1.00;;;;;;;20.98;62.84;100070.91;5341632;26;33479;-78
2023/09/18 06:22:56;;;;;;;1.48;1.37;;;;;;;21.24;61.39;100060.69;5324095;26;34221;-78
2023/09/18 06:25:24;;;;;;;8.40;3.05;;;;;;;21.06;62.20;100064.91;5323702;26;34822;-78
2023/09/18 06:27:52;;;;;;;4.82;3.42;;;;;;;21.05;62.35;100057.84;5341673;26;33727;-78
2023/09/18 06:30:21;;;;;;;2.85;1.58;;;;;;;21.48;61.44;100061.34;5323281;26;33455;-78
2023/09/18 06:32:49;;;;;;;7.72;1.95;;;;;;;21.53;60.68;100047.53;5341349;26;34133;-79
2023/09/18 06:35:17;;;;;;;3.33;1.70;;;;;;;21.71;60.44;100047.78;5305505;26;33224;-79
2023/09/18 06:37:45;;;;;;;3.60;2.33;;;;;;;21.50;60.90;100052.28;5341699;26;33226;-77
2023/09/18 06:40:13;;;;;;;2.03;1.67;;;;;;;21.51;60.94;100046.81;5324709;26;33528;-77
2023/09/18 06:42:40;;;;;;;2.22;1.33;;;;;;;21.82;60.11;100052.22;5325794;26;32257;-77
2023/09/18 06:45:09;;;;;;;3.20;2.33;;;;;;;21.75;59.96;100046.53;5343483;26;33812;-78
2023/09/18 06:47:40;;;;;;;1.08;0.93;;;;;;;21.90;59.58;100044.34;5363071;26;33728;-78
2023/09/18 06:50:09;;;;;;;1.52;1.42;;;;;;;22.08;59.88;100042.75;5325783;26;32792;-78
2023/09/18 06:52:37;;;;;;;5.30;2.62;;;;;;;22.24;58.91;100044.97;5364605;26;33441;-77
2023/09/18 06:55:05;;;;;;;1.83;1.70;;;;;;;21.82;59.79;100042.31;5344405;26;33933;-78
2023/09/18 06:57:33;;;;;;;3.72;1.92;;;;;;;22.07;59.60;100045.56;5344618;26;33329;-78
2023/09/18 07:00:02;;;;;;;1.52;1.42;;;;;;;22.12;59.39;100049.56;5343206;26;33370;-78
2023/09/18 07:02:30;;;;;;;1.62;1.52;;;;;;;22.32;58.54;100045.13;5307359;26;32495;-79
2023/09/18 07:04:58;;;;;;;1.83;1.42;;;;;;;22.55;58.03;100035.03;5363264;26;33827;-79
2023/09/18 07:07:26;;;;;;;2.12;1.92;;;;;;;22.56;58.13;100036.72;5344240;26;34749;-80
2023/09/18 07:09:53;;;;;;;1.77;1.67;;;;;;;22.46;58.28;100046.59;5362983;26;33903;-80
2023/09/18 07:12:32;;;;;;;17.17;2.70;;;;;;;22.52;58.29;100040.66;5346379;26;33656;-80
2023/09/18 07:15:02;;;;;;;1.98;1.80;;;;;;;22.34;58.69;100047.69;5325638;26;33785;-80
2023/09/18 07:17:30;;;;;;;15.73;1.95;;;;;;;22.67;57.55;100043.81;5326347;26;34173;-79
2023/09/18 07:20:00;;;;;;;4.35;2.60;;;;;;;22.46;57.90;100043.91;5360859;26;33871;-79
2023/09/18 07:22:27;;;;;;;6.10;2.33;;;;;;;22.89;57.27;100037.37;5343475;26;32455;-79
2023/09/18 07:24:58;;;;;;;2.40;1.65;;;;;;;22.78;57.12;100040.13;5326628;26;32778;-78
2023/09/18 07:27:25;;;;;;;9.85;1.98;;;;;;;22.98;57.07;100039.22;5344732;26;34119;-79
2023/09/18 07:29:55;;;;;;;2.58;2.17;;;;;;;22.78;57.41;100037.44;5363256;26;33881;-79
2023/09/18 07:32:24;;;;;;;1.55;0.80;;;;;;;23.11;56.79;100029.00;5326529;26;32979;-79
2023/09/18 07:35:07;;;;;;;2.47;2.27;;;;;;;23.02;56.78;100043.31;5346771;26;33502;-79
2023/09/18 07:37:35;;;;;;;1.02;1.00;;;;;;;23.03;56.99;100036.13;5344057;26;32866;-79
2023/09/18 07:40:05;;;;;;;2.35;1.90;;;;;;;23.24;56.61;100034.97;5326742;26;33026;-79
2023/09/18 07:42:33;;;;;;;1.45;1.33;;;;;;;23.64;55.05;100028.56;5337661;26;33784;-78
2023/09/18 07:45:02;;;;;;;2.83;1.85;;;;;;;23.36;56.15;100029.41;5349715;26;32824;-78
2023/09/18 07:47:30;;;;;;;1.27;1.17;;;;;;;23.58;55.49;100023.72;5367325;26;32996;-78
2023/09/18 07:49:59;;;;;;;1.35;1.25;;;;;;;23.46;55.82;100030.28;5368184;26;34043;-79
2023/09/18 07:52:31;;;;;;;2.65;1.95;;;;;;;23.52;55.59;100032.38;5368168;26;33505;-78
2023/09/18 07:54:59;;;;;;;8.88;2.28;;;;;;;23.70;55.28;100030.69;5349676;26;33953;-78
2023/09/18 07:57:32;;;;;;;4.40;1.67;;;;;;;23.90;54.90;100027.94;5348692;26;32987;-79
2023/09/18 08:00:19;;;;;;;1.65;0.85;;;;;;;24.25;54.61;100013.72;5349718;26;33410;-78
2023/09/18 08:02:49;;;;;;;1.87;1.77;;;;;;;24.22;54.49;100008.62;5351943;26;33356;-78
2023/09/18 08:05:17;;;;;;;3.95;2.47;;;;;;;24.09;54.67;100019.75;5350004;26;32867;-78
2023/09/18 08:07:47;;;;;;;1.40;1.30;;;;;;;24.18;54.15;100016.19;5366994;26;34786;-78
2023/09/18 08:10:14;;;;;;;1.55;1.35;;;;;;;24.57;53.15;100013.28;5368679;26;33724;-78
2023/09/18 08:12:42;;;;;;;3.30;1.67;;;;;;;24.30;54.19;100013.25;5349510;26;32869;-79
2023/09/18 08:15:11;;;;;;;2.35;1.85;;;;;;;24.76;53.42;100002.34;5367999;26;34420;-79
2023/09/18 08:17:40;;;;;;;7.55;2.85;;;;;;;25.17;52.62;99997.38;5368440;26;34097;-79
2023/09/18 08:20:12;;;;;;;1.30;1.25;;;;;;;24.47;53.29;99990.91;5349621;26;33999;-78
2023/09/18 08:22:42;;;;;;;1.87;1.77;;;;;;;24.62;53.22;99986.69;5368826;26;33763;-78
2023/09/18 08:25:10;;;;;;;2.22;2.03;;;;;;;24.47;53.48;99983.66;5349555;26;33630;-79
2023/09/18 08:27:43;;;;;;;4.37;1.77;;;;;;;24.47;53.19;99993.63;5330017;26;33334;-78
2023/09/18 08:30:13;;;;;;;3.83;1.92;;;;;;;24.49;53.40;99991.59;5350347;26;33909;-79
2023/09/18 08:32:41;;;;;;;2.15;1.67;;;;;;;24.51;53.97;99984.22;5349707;26;33255;-78
2023/09/18 08:35:10;;;;;;;1.98;1.85;;;;;;;25.00;53.23;99990.09;5331568;26;33662;-78
2023/09/18 08:37:40;;;;;;;3.28;2.22;;;;;;;25.00;52.04;99984.69;5367884;26;32851;-79
2023/09/18 08:40:13;;;;;;;1.27;1.17;;;;;;;25.06;52.41;99975.09;5349894;26;34000;-78
2023/09/18 08:42:47;;;;;;;1.70;1.60;;;;;;;25.31;51.71;99976.22;5368198;26;33491;-78
2023/09/18 08:45:27;;;;;;;2.05;1.40;;;;;;;25.32;51.44;99988.72;5350057;26;34539;-78
2023/09/18 08:47:56;;;;;;;5.25;2.62;;;;;;;25.23;51.94;99985.09;5349651;26;34023;-79
2023/09/18 08:50:25;;;;;;;4.60;1.90;;;;;;;25.59;50.63;99976.88;5348146;26;34378;-78
2023/09/18 08:52:54;;;;;;;1.48;1.37;;;;;;;25.71;50.10;99978.31;5349423;26;32524;-79
2023/09/18 08:55:23;;;;;;;1.98;1.85;;;;;;;25.61;50.87;99978.44;5349703;26;34008;-79
2023/09/18 08:57:52;;;;;;;3.62;2.50;;;;;;;25.91;49.85;99978.97;5349253;26;34483;-79
2023/09/18 09:00:19;;;;;;;5.25;2.05;;;;;;;25.92;49.69;99983.34;5349518;26;32834;-78
2023/09/18 09:02:50;;;;;;;3.12;2.65;;;;;;;25.90;49.95;99990.81;5368128;26;33478;-79
2023/09/18 09:05:19;;;;;;;3.08;2.60;;;;;;;25.89;49.79;99994.53;5368444;26;33514;-79
2023/09/18 09:07:49;;;;;;;2.80;2.40;;;;;;;26.20;49.60;99984.00;5367330;26;34743;-79
2023/09/18 09:10:17;;;;;;;2.70;1.87;;;;;;;26.72;48.24;99990.09;5349083;26;32797;-79
2023/09/18 09:12:48;;;;;;;1.90;1.55;;;;;;;26.69;48.53;99989.62;5349606;26;33396;-79
2023/09/18 09:15:17;;;;;;;2.85;1.80;;;;;;;26.86;47.95;99991.31;5347508;26;33304;-79
2023/09/18 09:17:45;;;;;;;4.62;1.52;;;;;;;26.90;47.75;99979.13;5349624;26;33097;-79
2023/09/18 09:20:14;;;;;;;1.17;1.08;;;;;;;27.01;47.19;99983.38;5330426;26;34282;-79
2023/09/18 09:22:42;;;;;;;3.08;2.67;;;;;;;27.00;47.53;99977.09;5331093;26;32170;-79
2023/09/18 09:25:19;;;;;;;1.87;1.60;;;;;;;27.24;47.21;99975.44;5347241;26;32877;-78
2023/09/18 09:27:47;;;;;;;2.15;1.87;;;;;;;27.16;46.27;99981.75;5349340;26;35706;-79
2023/09/18 09:30:19;;;;;;;2.22;1.85;;;;;;;27.39;46.68;99965.59;5349108;26;33916;-79
2023/09/18 09:32:48;;;;;;;;;;;;;;;27.68;47.00;99969.63;5350092;26;33071;-79
2023/09/18 09:35:27;;;;;;;1.33;1.23;;;;;;;27.28;47.29;99972.22;5368769;26;33859;-78
2023/09/18 09:38:15;;;;;;;7.57;1.62;;;;;;;27.48;46.31;99974.56;5367957;26;33665;-79
2023/09/18 09:40:46;;;;;;;3.80;1.80;;;;;;;27.25;46.83;99971.72;5349389;26;34180;-79
2023/09/18 09:43:14;;;;;;;5.85;1.52;;;;;;;27.41;45.93;99974.41;5367206;26;34941;-79
2023/09/18 09:45:45;;;;;;;2.25;2.05;;;;;;;27.35;46.72;99972.41;5349461;26;33841;-79
2023/09/18 09:48:14;;;;;;;1.52;1.42;;;;;;;27.93;45.03;99965.00;5347971;26;33415;-79
2023/09/18 09:50:48;;;;;;;11.88;2.20;;;;;;;27.97;44.72;99955.50;5367797;26;34282;-79
2023/09/18 09:53:18;;;;;;;1.60;1.50;;;;;;;28.03;44.87;99957.50;5366867;26;33434;-78
2023/09/18 09:55:54;;;;;;;3.00;1.50;;;;;;;27.59;45.39;99949.81;5349407;26;32792;-79
2023/09/18 09:58:26;;;;;;;2.03;1.92;;;;;;;28.04;45.61;99937.47;5330573;26;34184;-79
2023/09/18 10:00:55;;;;;;;3.60;2.37;;;;;;;27.97;45.18;99931.09;5348923;26;33466;-78
2023/09/18 10:03:23;;;;;;;0.68;0.68;;;;;;;28.41;44.75;99939.53;5367819;26;34193;-79
2023/09/18 10:05:53;;;;;;;5.82;2.20;;;;;;;28.42;43.53;99941.22;5349200;26;32915;-79
2023/09/18 10:08:25;;;;;;;1.90;1.45;;;;;;;28.02;44.34;99937.66;5367798;26;32895;-79
2023/09/18 10:10:56;;;;;;;7.95;2.12;;;;;;;28.15;44.83;99934.38;5368164;26;34814;-79
2023/09/18 10:13:30;;;;;;;3.62;1.62;;;;;;;28.39;44.16;99922.59;5367254;26;33589;-79
2023/09/18 10:16:02;;;;;;;3.37;1.37;;;;;;;28.28;44.59;99918.34;5367726;26;33683;-79
2023/09/18 10:18:45;;;;;;;2.83;2.12;;;;;;;28.65;44.17;99907.78;5348516;26;34297;-79
2023/09/18 10:21:31;;;;;;;2.75;1.42;;;;;;;28.47;44.26;99917.06;5348994;26;33775;-79
2023/09/18 10:24:08;;;;;;;2.78;2.17;;;;;;;28.75;43.20;99908.41;5367446;26;33386;-79
2023/09/18 10:26:41;;;;;;;4.95;2.15;;;;;;;28.61;43.58;99896.44;5367771;26;34786;-79
2023/09/18 10:29:11;;;;;;;1.62;1.25;;;;;;;29.25;42.75;99877.91;5349382;26;33968;-80
2023/09/18 10:31:40;;;;;;;1.48;1.27;;;;;;;29.05;43.14;99877.56;5349167;26;33134;-79
2023/09/18 10:34:08;;;;;;;6.93;2.12;;;;;;;29.26;42.30;99878.75;5348007;26;32509;-79
2023/09/18 10:36:37;;;;;;;1.48;1.33;;;;;;;29.44;41.26;99873.78;5346410;26;32802;-79
2023/09/18 10:39:10;;;;;;;1.23;1.17;;;;;;;29.36;42.13;99878.47;5346371;26;34125;-79
2023/09/18 10:41:39;;;;;;;3.05;1.70;;;;;;;29.45;41.40;99869.19;5346332;26;32891;-79
2023/09/18 10:44:07;;;;;;;1.42;1.37;;;;;;;29.54;41.96;99876.22;5328228;26;33457;-79
2023/09/18 10:46:35;;;;;;;1.05;1.05;;;;;;;29.61;41.20;99860.03;5364875;26;34655;-79
2023/09/18 10:49:03;;;;;;;2.12;1.45;;;;;;;29.33;41.64;99869.63;5346011;26;33514;-79
2023/09/18 10:51:33;;;;;;;6.35;1.80;;;;;;;29.68;41.38;99859.09;5364909;26;33696;-79
2023/09/18 10:54:01;;;;;;;8.00;2.90;;;;;;;29.88;40.64;99856.63;5346889;26;32646;-79
2023/09/18 10:56:30;;;;;;;12.02;2.08;;;;;;;29.96;40.72;99861.09;5364490;26;33678;-79
2023/09/18 10:58:59;;;;;;;3.25;1.02;;;;;;;29.97;39.72;99870.97;5345203;26;33617;-79
2023/09/18 11:01:29;;;;;;;2.20;1.35;;;;;;;29.83;40.60;99862.63;5365373;26;33863;-79
2023/09/18 11:03:59;;;;;;;2.85;1.45;;;;;;;29.61;41.26;99860.03;5346436;26;33180;-79
2023/09/18 11:06:28;;;;;;;7.65;2.97;;;;;;;29.77;41.09;99859.84;5347192;26;34680;-79
2023/09/18 11:09:04;;;;;;;4.03;1.35;;;;;;;30.17;39.79;99858.44;5364929;26;33553;-80
2023/09/18 11:11:35;;;;;;;2.10;1.55;;;;;;;30.38;39.30;99843.16;5347064;26;33948;-79
2023/09/18 11:14:10;;;;;;;1.42;1.12;;;;;;;30.02;39.62;99850.28;5345808;26;32570;-79
2023/09/18 11:16:39;;;;;;;1.35;1.25;;;;;;;30.12;39.58;99833.63;5329274;26;32949;-79
2023/09/18 11:19:10;;;;;;;1.48;1.30;;;;;;;30.30;39.55;99825.91;5365785;26;35067;-79
2023/09/18 11:21:39;;;;;;;;;;;;;;;30.51;38.66;99829.66;5347974;26;33494;-79
2023/09/18 11:24:15;;;;;;;5.43;2.20;;;;;;;30.42;38.75;99817.22;5328580;26;33378;-79
2023/09/18 11:26:46;;;;;;;15.07;2.20;;;;;;;30.32;38.46;99821.09;5346723;26;34657;-79
2023/09/18 11:29:22;;;;;;;1.67;1.58;;;;;;;30.64;38.61;99820.78;5349129;26;32979;-80
2023/09/18 11:31:56;;;;;;;1.62;1.52;;;;;;;30.63;38.44;99809.03;5331105;26;32718;-79
2023/09/18 11:34:28;;;;;;;4.00;2.90;;;;;;;31.27;38.55;99819.81;5368223;26;33134;-79
2023/09/18 11:37:02;;;;;;;2.33;2.12;;;;;;;30.70;38.99;99818.09;5350755;26;34381;-79